sensor_id;sensor_type;location;lat;lon;timestamp;P1;durP1;ratioP1;P2;durP2;ratioP2
37085;SDS011;23001;45.952;12.676;2024-02-23T00:05:20;37.78;;;31.13;;
37085;SDS011;23001;45.952;12.676;2024-02-23T00:07:49;36.72;;;30.75;;
37085;SDS011;23001;45.952;12.676;2024-02-23T00:10:34;36.53;;;28.85;;
37085;SDS011;23001;45.952;12.676;2024-02-23T00:22:10;33.47;;;28.38;;
37085;SDS011;23001;45.952;12.676;2024-02-23T00:28:56;32.90;;;29.38;;
37085;SDS011;23001;45.952;12.676;2024-02-23T01:20:35;35.30;;;29.38;;
37085;SDS011;23001;45.952;12.676;2024-02-23T01:48:48;36.63;;;31.58;;
37085;SDS011;23001;45.952;12.676;2024-02-23T02:02:27;39.42;;;33.35;;
37085;SDS011;23001;45.952;12.676;2024-02-23T02:12:43;37.95;;;33.15;;
37085;SDS011;23001;45.952;12.676;2024-02-23T03:01:23;31.50;;;26.75;;
37085;SDS011;23001;45.952;12.676;2024-02-23T03:08:34;23.95;;;21.27;;
37085;SDS011;23001;45.952;12.676;2024-02-23T04:01:53;13.90;;;8.88;;
37085;SDS011;23001;45.952;12.676;2024-02-23T04:04:35;11.75;;;7.75;;
37085;SDS011;23001;45.952;12.676;2024-02-23T04:07:21;12.65;;;7.78;;
37085;SDS011;23001;45.952;12.676;2024-02-23T04:10:32;10.27;;;7.72;;
37085;SDS011;23001;45.952;12.676;2024-02-23T04:12:50;12.68;;;8.05;;
37085;SDS011;23001;45.952;12.676;2024-02-23T04:17:53;11.82;;;8.27;;
37085;SDS011;23001;45.952;12.676;2024-02-23T04:23:36;10.75;;;7.05;;
37085;SDS011;23001;45.952;12.676;2024-02-23T04:29:26;9.13;;;7.00;;
37085;SDS011;23001;45.952;12.676;2024-02-23T04:32:23;9.00;;;7.25;;
37085;SDS011;23001;45.952;12.676;2024-02-23T04:34:52;10.63;;;7.63;;
37085;SDS011;23001;45.952;12.676;2024-02-23T04:37:55;12.30;;;8.40;;
37085;SDS011;23001;45.952;12.676;2024-02-23T04:50:05;15.07;;;7.65;;
37085;SDS011;23001;45.952;12.676;2024-02-23T04:52:31;9.90;;;6.85;;
37085;SDS011;23001;45.952;12.676;2024-02-23T04:58:14;13.35;;;8.30;;
37085;SDS011;23001;45.952;12.676;2024-02-23T05:00:48;13.55;;;8.48;;
37085;SDS011;23001;45.952;12.676;2024-02-23T05:03:14;10.07;;;8.00;;
37085;SDS011;23001;45.952;12.676;2024-02-23T05:05:41;14.43;;;8.75;;
37085;SDS011;23001;45.952;12.676;2024-02-23T05:08:06;12.80;;;7.93;;
37085;SDS011;23001;45.952;12.676;2024-02-23T05:10:45;11.32;;;7.40;;
37085;SDS011;23001;45.952;12.676;2024-02-23T05:13:11;8.70;;;7.07;;
37085;SDS011;23001;45.952;12.676;2024-02-23T05:15:37;9.13;;;7.03;;
37085;SDS011;23001;45.952;12.676;2024-02-23T05:18:03;15.63;;;7.70;;
37085;SDS011;23001;45.952;12.676;2024-02-23T05:20:29;12.23;;;6.80;;
37085;SDS011;23001;45.952;12.676;2024-02-23T05:22:55;9.40;;;7.32;;
37085;SDS011;23001;45.952;12.676;2024-02-23T05:25:21;14.25;;;8.40;;
37085;SDS011;23001;45.952;12.676;2024-02-23T05:27:49;12.85;;;8.05;;
37085;SDS011;23001;45.952;12.676;2024-02-23T05:30:17;13.70;;;7.93;;
37085;SDS011;23001;45.952;12.676;2024-02-23T05:32:57;12.27;;;7.93;;
37085;SDS011;23001;45.952;12.676;2024-02-23T05:35:29;10.10;;;8.20;;
37085;SDS011;23001;45.952;12.676;2024-02-23T05:37:55;8.38;;;7.45;;
37085;SDS011;23001;45.952;12.676;2024-02-23T05:40:21;8.98;;;8.00;;
37085;SDS011;23001;45.952;12.676;2024-02-23T05:42:47;12.57;;;8.23;;
37085;SDS011;23001;45.952;12.676;2024-02-23T05:45:13;12.23;;;8.23;;
37085;SDS011;23001;45.952;12.676;2024-02-23T05:47:38;11.93;;;7.63;;
37085;SDS011;23001;45.952;12.676;2024-02-23T05:50:04;14.82;;;7.07;;
37085;SDS011;23001;45.952;12.676;2024-02-23T05:52:31;12.50;;;7.88;;
37085;SDS011;23001;45.952;12.676;2024-02-23T05:54:57;14.55;;;8.80;;
37085;SDS011;23001;45.952;12.676;2024-02-23T05:57:27;10.10;;;8.10;;
37085;SDS011;23001;45.952;12.676;2024-02-23T05:59:53;10.85;;;8.18;;
37085;SDS011;23001;45.952;12.676;2024-02-23T06:02:20;13.68;;;8.20;;
37085;SDS011;23001;45.952;12.676;2024-02-23T06:04:50;12.38;;;8.35;;
37085;SDS011;23001;45.952;12.676;2024-02-23T06:07:16;12.10;;;9.43;;
37085;SDS011;23001;45.952;12.676;2024-02-23T06:09:45;13.10;;;8.50;;
37085;SDS011;23001;45.952;12.676;2024-02-23T06:12:11;14.93;;;9.50;;
37085;SDS011;23001;45.952;12.676;2024-02-23T06:14:36;11.95;;;8.88;;
37085;SDS011;23001;45.952;12.676;2024-02-23T06:17:02;10.90;;;9.43;;
37085;SDS011;23001;45.952;12.676;2024-02-23T06:19:29;17.35;;;8.57;;
37085;SDS011;23001;45.952;12.676;2024-02-23T06:21:54;10.00;;;8.75;;
37085;SDS011;23001;45.952;12.676;2024-02-23T06:24:20;12.10;;;9.30;;
37085;SDS011;23001;45.952;12.676;2024-02-23T06:26:46;9.70;;;8.30;;
37085;SDS011;23001;45.952;12.676;2024-02-23T06:29:14;13.40;;;8.90;;
37085;SDS011;23001;45.952;12.676;2024-02-23T06:31:40;12.80;;;8.60;;
37085;SDS011;23001;45.952;12.676;2024-02-23T06:34:08;11.05;;;8.57;;
37085;SDS011;23001;45.952;12.676;2024-02-23T06:36:34;9.70;;;8.52;;
37085;SDS011;23001;45.952;12.676;2024-02-23T06:39:00;9.93;;;8.88;;
37085;SDS011;23001;45.952;12.676;2024-02-23T06:41:37;10.50;;;9.15;;
37085;SDS011;23001;45.952;12.676;2024-02-23T06:44:05;11.15;;;8.70;;
37085;SDS011;23001;45.952;12.676;2024-02-23T06:46:40;9.55;;;8.50;;
37085;SDS011;23001;45.952;12.676;2024-02-23T06:49:13;9.40;;;8.38;;
37085;SDS011;23001;45.952;12.676;2024-02-23T06:51:39;12.43;;;8.43;;
37085;SDS011;23001;45.952;12.676;2024-02-23T06:54:05;12.10;;;9.20;;
37085;SDS011;23001;45.952;12.676;2024-02-23T06:56:33;11.75;;;8.35;;
37085;SDS011;23001;45.952;12.676;2024-02-23T06:58:59;8.88;;;7.97;;
37085;SDS011;23001;45.952;12.676;2024-02-23T07:01:24;9.15;;;7.63;;
37085;SDS011;23001;45.952;12.676;2024-02-23T07:03:53;8.18;;;7.35;;
37085;SDS011;23001;45.952;12.676;2024-02-23T07:06:19;11.15;;;7.45;;
37085;SDS011;23001;45.952;12.676;2024-02-23T07:08:45;7.53;;;6.70;;
37085;SDS011;23001;45.952;12.676;2024-02-23T07:11:11;7.47;;;5.70;;
37085;SDS011;23001;45.952;12.676;2024-02-23T07:13:36;9.93;;;6.50;;
37085;SDS011;23001;45.952;12.676;2024-02-23T07:16:02;8.23;;;6.88;;
37085;SDS011;23001;45.952;12.676;2024-02-23T07:18:29;6.72;;;5.80;;
37085;SDS011;23001;45.952;12.676;2024-02-23T07:21:31;7.53;;;6.00;;
37085;SDS011;23001;45.952;12.676;2024-02-23T07:24:05;9.23;;;5.90;;
37085;SDS011;23001;45.952;12.676;2024-02-23T07:26:31;11.40;;;6.53;;
37085;SDS011;23001;45.952;12.676;2024-02-23T07:29:00;9.75;;;6.50;;
37085;SDS011;23001;45.952;12.676;2024-02-23T07:31:26;9.13;;;6.15;;
37085;SDS011;23001;45.952;12.676;2024-02-23T07:33:52;9.23;;;6.75;;
37085;SDS011;23001;45.952;12.676;2024-02-23T07:36:18;8.55;;;6.90;;
37085;SDS011;23001;45.952;12.676;2024-02-23T07:38:44;12.00;;;6.57;;
37085;SDS011;23001;45.952;12.676;2024-02-23T07:41:10;9.32;;;7.30;;
37085;SDS011;23001;45.952;12.676;2024-02-23T07:43:39;11.23;;;6.57;;
37085;SDS011;23001;45.952;12.676;2024-02-23T07:46:05;8.10;;;6.07;;
37085;SDS011;23001;45.952;12.676;2024-02-23T07:48:34;8.77;;;6.53;;
37085;SDS011;23001;45.952;12.676;2024-02-23T07:51:00;8.00;;;6.20;;
37085;SDS011;23001;45.952;12.676;2024-02-23T07:53:27;7.22;;;5.45;;
37085;SDS011;23001;45.952;12.676;2024-02-23T07:55:53;6.97;;;5.40;;
37085;SDS011;23001;45.952;12.676;2024-02-23T07:58:18;6.75;;;5.05;;
37085;SDS011;23001;45.952;12.676;2024-02-23T08:00:44;6.57;;;5.85;;
37085;SDS011;23001;45.952;12.676;2024-02-23T08:03:10;7.90;;;5.90;;
37085;SDS011;23001;45.952;12.676;2024-02-23T08:05:36;7.75;;;5.97;;
37085;SDS011;23001;45.952;12.676;2024-02-23T08:08:02;9.05;;;5.93;;
37085;SDS011;23001;45.952;12.676;2024-02-23T08:10:27;7.38;;;5.20;;
37085;SDS011;23001;45.952;12.676;2024-02-23T08:12:53;12.57;;;6.43;;
37085;SDS011;23001;45.952;12.676;2024-02-23T08:15:22;6.50;;;5.90;;
37085;SDS011;23001;45.952;12.676;2024-02-23T08:17:51;7.45;;;5.10;;
37085;SDS011;23001;45.952;12.676;2024-02-23T08:20:19;10.30;;;6.78;;
37085;SDS011;23001;45.952;12.676;2024-02-23T08:22:46;8.18;;;5.57;;
37085;SDS011;23001;45.952;12.676;2024-02-23T08:25:12;5.80;;;5.25;;
37085;SDS011;23001;45.952;12.676;2024-02-23T08:27:37;5.72;;;5.00;;
37085;SDS011;23001;45.952;12.676;2024-02-23T08:30:05;5.88;;;5.20;;
37085;SDS011;23001;45.952;12.676;2024-02-23T08:32:32;6.60;;;4.75;;
37085;SDS011;23001;45.952;12.676;2024-02-23T08:35:02;7.65;;;5.20;;
37085;SDS011;23001;45.952;12.676;2024-02-23T08:37:28;7.15;;;5.25;;
37085;SDS011;23001;45.952;12.676;2024-02-23T08:39:54;6.45;;;4.90;;
37085;SDS011;23001;45.952;12.676;2024-02-23T08:42:22;8.13;;;5.00;;
37085;SDS011;23001;45.952;12.676;2024-02-23T08:44:48;6.93;;;4.88;;
37085;SDS011;23001;45.952;12.676;2024-02-23T08:47:19;7.30;;;5.10;;
37085;SDS011;23001;45.952;12.676;2024-02-23T08:49:45;6.15;;;4.75;;
37085;SDS011;23001;45.952;12.676;2024-02-23T08:52:11;12.05;;;5.90;;
37085;SDS011;23001;45.952;12.676;2024-02-23T08:54:37;8.85;;;5.00;;
37085;SDS011;23001;45.952;12.676;2024-02-23T08:57:05;7.47;;;4.80;;
37085;SDS011;23001;45.952;12.676;2024-02-23T08:59:34;6.72;;;4.93;;
37085;SDS011;23001;45.952;12.676;2024-02-23T09:02:03;11.85;;;5.00;;
37085;SDS011;23001;45.952;12.676;2024-02-23T09:04:29;7.82;;;6.05;;
37085;SDS011;23001;45.952;12.676;2024-02-23T09:06:55;10.02;;;5.95;;
37085;SDS011;23001;45.952;12.676;2024-02-23T09:09:21;8.13;;;5.57;;
37085;SDS011;23001;45.952;12.676;2024-02-23T09:11:50;9.75;;;6.43;;
37085;SDS011;23001;45.952;12.676;2024-02-23T09:14:16;29.83;;;18.98;;
37085;SDS011;23001;45.952;12.676;2024-02-23T09:16:51;27.10;;;15.70;;
37085;SDS011;23001;45.952;12.676;2024-02-23T09:19:23;12.23;;;8.13;;
37085;SDS011;23001;45.952;12.676;2024-02-23T09:21:58;18.45;;;12.10;;
37085;SDS011;23001;45.952;12.676;2024-02-23T09:24:25;12.60;;;8.73;;
37085;SDS011;23001;45.952;12.676;2024-02-23T09:26:52;12.10;;;7.70;;
37085;SDS011;23001;45.952;12.676;2024-02-23T09:29:25;12.63;;;7.85;;
37085;SDS011;23001;45.952;12.676;2024-02-23T09:31:53;8.65;;;6.35;;
37085;SDS011;23001;45.952;12.676;2024-02-23T09:34:34;22.35;;;16.35;;
37085;SDS011;23001;45.952;12.676;2024-02-23T09:37:06;15.57;;;11.30;;
37085;SDS011;23001;45.952;12.676;2024-02-23T09:42:55;18.10;;;11.32;;
37085;SDS011;23001;45.952;12.676;2024-02-23T09:45:39;15.68;;;11.35;;
37085;SDS011;23001;45.952;12.676;2024-02-23T09:48:12;12.70;;;9.95;;
37085;SDS011;23001;45.952;12.676;2024-02-23T09:50:40;15.65;;;10.38;;
37085;SDS011;23001;45.952;12.676;2024-02-23T09:53:44;16.15;;;11.38;;
37085;SDS011;23001;45.952;12.676;2024-02-23T09:56:13;14.07;;;10.25;;
37085;SDS011;23001;45.952;12.676;2024-02-23T09:58:54;13.38;;;8.95;;
37085;SDS011;23001;45.952;12.676;2024-02-23T10:01:27;21.73;;;14.32;;
37085;SDS011;23001;45.952;12.676;2024-02-23T10:06:51;10.15;;;8.07;;
37085;SDS011;23001;45.952;12.676;2024-02-23T10:09:47;10.60;;;7.32;;
37085;SDS011;23001;45.952;12.676;2024-02-23T10:16:32;10.38;;;6.90;;
37085;SDS011;23001;45.952;12.676;2024-02-23T10:19:03;9.65;;;6.90;;
37085;SDS011;23001;45.952;12.676;2024-02-23T10:21:32;13.05;;;7.00;;
37085;SDS011;23001;45.952;12.676;2024-02-23T10:26:52;10.27;;;7.22;;
37085;SDS011;23001;45.952;12.676;2024-02-23T10:29:18;10.77;;;7.45;;
37085;SDS011;23001;45.952;12.676;2024-02-23T10:31:46;11.85;;;6.78;;
37085;SDS011;23001;45.952;12.676;2024-02-23T10:34:14;12.43;;;6.68;;
37085;SDS011;23001;45.952;12.676;2024-02-23T10:36:43;11.32;;;6.80;;
37085;SDS011;23001;45.952;12.676;2024-02-23T10:39:12;11.50;;;6.00;;
37085;SDS011;23001;45.952;12.676;2024-02-23T10:41:57;10.68;;;6.68;;
37085;SDS011;23001;45.952;12.676;2024-02-23T10:44:27;10.88;;;7.03;;
37085;SDS011;23001;45.952;12.676;2024-02-23T10:46:54;10.38;;;7.70;;
37085;SDS011;23001;45.952;12.676;2024-02-23T10:49:21;11.43;;;6.70;;
37085;SDS011;23001;45.952;12.676;2024-02-23T10:51:51;12.43;;;6.80;;
37085;SDS011;23001;45.952;12.676;2024-02-23T10:54:17;15.50;;;7.13;;
37085;SDS011;23001;45.952;12.676;2024-02-23T10:56:49;10.40;;;7.68;;
37085;SDS011;23001;45.952;12.676;2024-02-23T10:59:19;7.90;;;6.00;;
37085;SDS011;23001;45.952;12.676;2024-02-23T11:01:47;12.75;;;5.95;;
37085;SDS011;23001;45.952;12.676;2024-02-23T11:04:15;9.50;;;5.60;;
37085;SDS011;23001;45.952;12.676;2024-02-23T11:06:42;7.53;;;5.60;;
37085;SDS011;23001;45.952;12.676;2024-02-23T11:09:13;7.85;;;5.60;;
37085;SDS011;23001;45.952;12.676;2024-02-23T11:11:39;8.60;;;6.03;;
37085;SDS011;23001;45.952;12.676;2024-02-23T11:14:08;10.75;;;7.05;;
37085;SDS011;23001;45.952;12.676;2024-02-23T11:16:34;8.40;;;6.35;;
37085;SDS011;23001;45.952;12.676;2024-02-23T11:19:05;10.35;;;5.20;;
37085;SDS011;23001;45.952;12.676;2024-02-23T11:21:34;6.50;;;4.20;;
37085;SDS011;23001;45.952;12.676;2024-02-23T11:24:04;6.05;;;4.85;;
37085;SDS011;23001;45.952;12.676;2024-02-23T11:26:30;7.55;;;4.50;;
37085;SDS011;23001;45.952;12.676;2024-02-23T11:28:58;7.05;;;5.10;;
37085;SDS011;23001;45.952;12.676;2024-02-23T11:31:34;7.68;;;4.65;;
37085;SDS011;23001;45.952;12.676;2024-02-23T11:34:00;5.55;;;4.10;;
37085;SDS011;23001;45.952;12.676;2024-02-23T11:36:29;5.82;;;3.30;;
37085;SDS011;23001;45.952;12.676;2024-02-23T11:38:57;6.05;;;3.85;;
37085;SDS011;23001;45.952;12.676;2024-02-23T11:41:25;6.05;;;3.45;;
37085;SDS011;23001;45.952;12.676;2024-02-23T11:43:55;5.25;;;3.55;;
37085;SDS011;23001;45.952;12.676;2024-02-23T11:46:21;8.88;;;3.90;;
37085;SDS011;23001;45.952;12.676;2024-02-23T11:48:48;4.30;;;3.45;;
37085;SDS011;23001;45.952;12.676;2024-02-23T11:51:23;9.85;;;3.78;;
37085;SDS011;23001;45.952;12.676;2024-02-23T11:53:51;9.90;;;3.30;;
37085;SDS011;23001;45.952;12.676;2024-02-23T11:56:18;4.68;;;3.60;;
37085;SDS011;23001;45.952;12.676;2024-02-23T11:58:45;4.88;;;3.38;;
37085;SDS011;23001;45.952;12.676;2024-02-23T12:01:11;5.10;;;3.03;;
37085;SDS011;23001;45.952;12.676;2024-02-23T12:03:37;4.97;;;3.15;;
37085;SDS011;23001;45.952;12.676;2024-02-23T12:06:04;3.63;;;2.70;;
37085;SDS011;23001;45.952;12.676;2024-02-23T12:08:31;4.38;;;3.05;;
37085;SDS011;23001;45.952;12.676;2024-02-23T12:11:03;4.50;;;2.92;;
37085;SDS011;23001;45.952;12.676;2024-02-23T12:13:30;5.90;;;3.60;;
37085;SDS011;23001;45.952;12.676;2024-02-23T12:15:56;10.27;;;7.15;;
37085;SDS011;23001;45.952;12.676;2024-02-23T12:18:22;7.80;;;6.45;;
37085;SDS011;23001;45.952;12.676;2024-02-23T12:20:48;7.47;;;4.78;;
37085;SDS011;23001;45.952;12.676;2024-02-23T12:23:14;7.47;;;4.65;;
37085;SDS011;23001;45.952;12.676;2024-02-23T12:25:41;7.70;;;5.75;;
37085;SDS011;23001;45.952;12.676;2024-02-23T12:28:18;8.13;;;5.43;;
37085;SDS011;23001;45.952;12.676;2024-02-23T12:30:43;6.00;;;4.00;;
37085;SDS011;23001;45.952;12.676;2024-02-23T12:33:11;5.43;;;4.03;;
37085;SDS011;23001;45.952;12.676;2024-02-23T12:35:40;5.10;;;4.00;;
37085;SDS011;23001;45.952;12.676;2024-02-23T12:38:06;7.05;;;3.60;;
37085;SDS011;23001;45.952;12.676;2024-02-23T12:40:32;6.03;;;4.65;;
37085;SDS011;23001;45.952;12.676;2024-02-23T12:42:58;5.30;;;3.33;;
37085;SDS011;23001;45.952;12.676;2024-02-23T12:45:23;5.38;;;4.10;;
37085;SDS011;23001;45.952;12.676;2024-02-23T12:47:49;4.55;;;3.75;;
37085;SDS011;23001;45.952;12.676;2024-02-23T12:50:15;4.38;;;3.33;;
37085;SDS011;23001;45.952;12.676;2024-02-23T12:52:41;3.53;;;3.22;;
37085;SDS011;23001;45.952;12.676;2024-02-23T12:55:08;4.50;;;3.60;;
37085;SDS011;23001;45.952;12.676;2024-02-23T12:57:34;6.82;;;4.20;;
37085;SDS011;23001;45.952;12.676;2024-02-23T12:59:59;5.93;;;3.80;;
37085;SDS011;23001;45.952;12.676;2024-02-23T13:02:25;5.95;;;4.80;;
37085;SDS011;23001;45.952;12.676;2024-02-23T13:04:51;4.65;;;4.10;;
37085;SDS011;23001;45.952;12.676;2024-02-23T13:07:17;6.20;;;5.22;;
37085;SDS011;23001;45.952;12.676;2024-02-23T13:09:43;5.68;;;4.57;;
37085;SDS011;23001;45.952;12.676;2024-02-23T13:12:08;7.05;;;5.07;;
37085;SDS011;23001;45.952;12.676;2024-02-23T13:14:35;6.93;;;5.25;;
37085;SDS011;23001;45.952;12.676;2024-02-23T13:17:00;5.95;;;5.10;;
37085;SDS011;23001;45.952;12.676;2024-02-23T13:19:26;8.15;;;5.50;;
37085;SDS011;23001;45.952;12.676;2024-02-23T13:21:52;7.13;;;6.03;;
37085;SDS011;23001;45.952;12.676;2024-02-23T13:24:18;7.93;;;4.32;;
37085;SDS011;23001;45.952;12.676;2024-02-23T13:26:44;7.20;;;4.53;;
37085;SDS011;23001;45.952;12.676;2024-02-23T13:29:09;5.75;;;4.53;;
37085;SDS011;23001;45.952;12.676;2024-02-23T13:31:35;6.10;;;4.30;;
37085;SDS011;23001;45.952;12.676;2024-02-23T13:34:03;9.35;;;5.05;;
37085;SDS011;23001;45.952;12.676;2024-02-23T13:36:29;9.05;;;5.32;;
37085;SDS011;23001;45.952;12.676;2024-02-23T13:38:54;10.13;;;6.05;;
37085;SDS011;23001;45.952;12.676;2024-02-23T13:41:20;6.57;;;5.88;;
37085;SDS011;23001;45.952;12.676;2024-02-23T13:43:46;8.93;;;6.78;;
37085;SDS011;23001;45.952;12.676;2024-02-23T13:46:11;19.48;;;14.70;;
37085;SDS011;23001;45.952;12.676;2024-02-23T13:48:37;13.40;;;9.50;;
37085;SDS011;23001;45.952;12.676;2024-02-23T13:51:03;19.48;;;12.85;;
37085;SDS011;23001;45.952;12.676;2024-02-23T13:53:30;12.18;;;8.05;;
37085;SDS011;23001;45.952;12.676;2024-02-23T13:55:58;9.75;;;8.13;;
37085;SDS011;23001;45.952;12.676;2024-02-23T13:58:26;12.75;;;8.07;;
37085;SDS011;23001;45.952;12.676;2024-02-23T14:00:58;6.88;;;5.80;;
37085;SDS011;23001;45.952;12.676;2024-02-23T14:03:24;8.32;;;6.78;;
37085;SDS011;23001;45.952;12.676;2024-02-23T14:05:49;10.50;;;7.72;;
37085;SDS011;23001;45.952;12.676;2024-02-23T14:08:15;10.43;;;7.80;;
37085;SDS011;23001;45.952;12.676;2024-02-23T14:10:41;9.82;;;8.23;;
37085;SDS011;23001;45.952;12.676;2024-02-23T14:13:08;11.98;;;8.15;;
37085;SDS011;23001;45.952;12.676;2024-02-23T14:15:33;10.13;;;7.57;;
37085;SDS011;23001;45.952;12.676;2024-02-23T14:17:59;9.95;;;6.95;;
37085;SDS011;23001;45.952;12.676;2024-02-23T14:20:25;10.93;;;7.07;;
37085;SDS011;23001;45.952;12.676;2024-02-23T14:22:50;10.55;;;6.68;;
37085;SDS011;23001;45.952;12.676;2024-02-23T14:25:17;9.07;;;7.15;;
37085;SDS011;23001;45.952;12.676;2024-02-23T14:27:43;10.43;;;8.10;;
37085;SDS011;23001;45.952;12.676;2024-02-23T14:30:09;15.73;;;9.05;;
37085;SDS011;23001;45.952;12.676;2024-02-23T14:32:35;14.27;;;10.10;;
37085;SDS011;23001;45.952;12.676;2024-02-23T14:35:03;17.02;;;11.55;;
37085;SDS011;23001;45.952;12.676;2024-02-23T14:37:29;19.73;;;11.10;;
37085;SDS011;23001;45.952;12.676;2024-02-23T14:39:55;19.63;;;12.77;;
37085;SDS011;23001;45.952;12.676;2024-02-23T14:42:21;15.45;;;12.60;;
37085;SDS011;23001;45.952;12.676;2024-02-23T14:44:47;13.68;;;11.32;;
37085;SDS011;23001;45.952;12.676;2024-02-23T14:47:12;10.88;;;8.27;;
37085;SDS011;23001;45.952;12.676;2024-02-23T14:49:38;14.10;;;10.00;;
37085;SDS011;23001;45.952;12.676;2024-02-23T14:52:04;18.05;;;12.48;;
37085;SDS011;23001;45.952;12.676;2024-02-23T14:54:30;13.13;;;8.80;;
37085;SDS011;23001;45.952;12.676;2024-02-23T14:56:55;10.48;;;7.28;;
37085;SDS011;23001;45.952;12.676;2024-02-23T14:59:21;8.65;;;6.55;;
37085;SDS011;23001;45.952;12.676;2024-02-23T15:01:47;9.65;;;6.63;;
37085;SDS011;23001;45.952;12.676;2024-02-23T15:04:13;10.52;;;7.10;;
37085;SDS011;23001;45.952;12.676;2024-02-23T15:06:39;8.30;;;5.80;;
37085;SDS011;23001;45.952;12.676;2024-02-23T15:09:05;22.30;;;13.90;;
37085;SDS011;23001;45.952;12.676;2024-02-23T15:11:31;18.05;;;12.73;;
37085;SDS011;23001;45.952;12.676;2024-02-23T15:13:57;11.73;;;8.30;;
37085;SDS011;23001;45.952;12.676;2024-02-23T15:16:26;11.25;;;8.15;;
37085;SDS011;23001;45.952;12.676;2024-02-23T15:18:53;13.50;;;7.22;;
37085;SDS011;23001;45.952;12.676;2024-02-23T15:21:19;10.43;;;7.95;;
37085;SDS011;23001;45.952;12.676;2024-02-23T15:23:45;10.52;;;7.82;;
37085;SDS011;23001;45.952;12.676;2024-02-23T15:26:11;11.98;;;7.63;;
37085;SDS011;23001;45.952;12.676;2024-02-23T15:28:37;11.45;;;7.60;;
37085;SDS011;23001;45.952;12.676;2024-02-23T15:31:04;10.45;;;8.20;;
37085;SDS011;23001;45.952;12.676;2024-02-23T15:33:29;12.15;;;8.52;;
37085;SDS011;23001;45.952;12.676;2024-02-23T15:35:55;12.98;;;8.75;;
37085;SDS011;23001;45.952;12.676;2024-02-23T15:38:21;14.18;;;10.18;;
37085;SDS011;23001;45.952;12.676;2024-02-23T15:40:47;15.00;;;12.00;;
37085;SDS011;23001;45.952;12.676;2024-02-23T15:43:13;13.73;;;12.13;;
37085;SDS011;23001;45.952;12.676;2024-02-23T15:45:41;16.73;;;12.20;;
37085;SDS011;23001;45.952;12.676;2024-02-23T15:48:08;14.00;;;10.82;;
37085;SDS011;23001;45.952;12.676;2024-02-23T15:50:33;13.95;;;11.35;;
37085;SDS011;23001;45.952;12.676;2024-02-23T15:52:59;14.68;;;11.05;;
37085;SDS011;23001;45.952;12.676;2024-02-23T15:55:26;14.25;;;12.27;;
37085;SDS011;23001;45.952;12.676;2024-02-23T15:57:58;15.50;;;12.07;;
37085;SDS011;23001;45.952;12.676;2024-02-23T16:04:14;14.88;;;11.23;;
37085;SDS011;23001;45.952;12.676;2024-02-23T16:06:40;17.45;;;14.13;;
37085;SDS011;23001;45.952;12.676;2024-02-23T16:09:06;13.73;;;11.52;;
37085;SDS011;23001;45.952;12.676;2024-02-23T16:11:32;13.63;;;10.88;;
37085;SDS011;23001;45.952;12.676;2024-02-23T16:13:58;15.85;;;11.50;;
37085;SDS011;23001;45.952;12.676;2024-02-23T16:16:24;15.40;;;12.70;;
37085;SDS011;23001;45.952;12.676;2024-02-23T16:18:50;18.45;;;12.10;;
37085;SDS011;23001;45.952;12.676;2024-02-23T16:21:16;13.23;;;11.52;;
37085;SDS011;23001;45.952;12.676;2024-02-23T16:23:42;15.25;;;11.98;;
37085;SDS011;23001;45.952;12.676;2024-02-23T16:26:08;15.25;;;11.23;;
37085;SDS011;23001;45.952;12.676;2024-02-23T16:28:34;14.20;;;10.40;;
37085;SDS011;23001;45.952;12.676;2024-02-23T16:31:00;13.00;;;10.50;;
37085;SDS011;23001;45.952;12.676;2024-02-23T16:33:26;13.93;;;10.63;;
37085;SDS011;23001;45.952;12.676;2024-02-23T16:35:53;12.70;;;10.98;;
37085;SDS011;23001;45.952;12.676;2024-02-23T16:38:24;15.45;;;11.35;;
37085;SDS011;23001;45.952;12.676;2024-02-23T16:40:50;17.35;;;12.13;;
37085;SDS011;23001;45.952;12.676;2024-02-23T16:43:15;16.08;;;12.55;;
37085;SDS011;23001;45.952;12.676;2024-02-23T16:45:41;13.45;;;11.88;;
37085;SDS011;23001;45.952;12.676;2024-02-23T16:48:07;18.95;;;12.20;;
37085;SDS011;23001;45.952;12.676;2024-02-23T16:50:35;20.45;;;16.33;;
37085;SDS011;23001;45.952;12.676;2024-02-23T16:53:03;22.75;;;20.35;;
37085;SDS011;23001;45.952;12.676;2024-02-23T16:55:29;18.38;;;15.73;;
37085;SDS011;23001;45.952;12.676;2024-02-23T16:57:55;21.83;;;17.05;;
37085;SDS011;23001;45.952;12.676;2024-02-23T17:00:21;18.60;;;15.70;;
37085;SDS011;23001;45.952;12.676;2024-02-23T17:02:47;17.95;;;15.35;;
37085;SDS011;23001;45.952;12.676;2024-02-23T17:05:13;12.85;;;11.27;;
37085;SDS011;23001;45.952;12.676;2024-02-23T17:07:38;11.88;;;10.55;;
37085;SDS011;23001;45.952;12.676;2024-02-23T17:10:04;17.90;;;12.90;;
37085;SDS011;23001;45.952;12.676;2024-02-23T17:12:30;15.00;;;12.57;;
37085;SDS011;23001;45.952;12.676;2024-02-23T17:14:56;16.25;;;12.77;;
37085;SDS011;23001;45.952;12.676;2024-02-23T17:20:24;17.33;;;13.13;;
37085;SDS011;23001;45.952;12.676;2024-02-23T17:22:51;19.00;;;16.88;;
37085;SDS011;23001;45.952;12.676;2024-02-23T17:25:20;19.15;;;15.07;;
37085;SDS011;23001;45.952;12.676;2024-02-23T17:28:00;16.92;;;13.23;;
37085;SDS011;23001;45.952;12.676;2024-02-23T17:30:34;15.07;;;13.23;;
37085;SDS011;23001;45.952;12.676;2024-02-23T17:33:00;14.57;;;12.38;;
37085;SDS011;23001;45.952;12.676;2024-02-23T17:35:31;13.27;;;10.32;;
37085;SDS011;23001;45.952;12.676;2024-02-23T17:38:14;14.25;;;11.00;;
37085;SDS011;23001;45.952;12.676;2024-02-23T17:40:41;12.02;;;10.75;;
37085;SDS011;23001;45.952;12.676;2024-02-23T17:43:22;15.57;;;13.15;;
37085;SDS011;23001;45.952;12.676;2024-02-23T17:46:07;14.52;;;13.02;;
37085;SDS011;23001;45.952;12.676;2024-02-23T17:48:35;15.48;;;12.40;;
37085;SDS011;23001;45.952;12.676;2024-02-23T17:51:05;14.95;;;11.70;;
37085;SDS011;23001;45.952;12.676;2024-02-23T17:54:05;13.90;;;12.40;;
37085;SDS011;23001;45.952;12.676;2024-02-23T17:56:34;13.48;;;12.18;;
37085;SDS011;23001;45.952;12.676;2024-02-23T17:59:09;14.10;;;10.65;;
37085;SDS011;23001;45.952;12.676;2024-02-23T18:02:09;12.55;;;10.10;;
37085;SDS011;23001;45.952;12.676;2024-02-23T18:04:41;13.07;;;10.80;;
37085;SDS011;23001;45.952;12.676;2024-02-23T18:07:19;15.43;;;11.32;;
37085;SDS011;23001;45.952;12.676;2024-02-23T18:09:44;14.27;;;11.52;;
37085;SDS011;23001;45.952;12.676;2024-02-23T18:12:16;13.88;;;12.43;;
37085;SDS011;23001;45.952;12.676;2024-02-23T18:14:41;13.30;;;10.75;;
37085;SDS011;23001;45.952;12.676;2024-02-23T18:17:07;13.25;;;11.85;;
37085;SDS011;23001;45.952;12.676;2024-02-23T18:19:34;14.35;;;11.48;;
37085;SDS011;23001;45.952;12.676;2024-02-23T18:22:07;16.17;;;12.77;;
37085;SDS011;23001;45.952;12.676;2024-02-23T18:24:33;17.00;;;15.00;;
37085;SDS011;23001;45.952;12.676;2024-02-23T18:26:58;17.08;;;15.18;;
37085;SDS011;23001;45.952;12.676;2024-02-23T18:29:24;16.42;;;14.70;;
37085;SDS011;23001;45.952;12.676;2024-02-23T18:31:50;17.85;;;16.00;;
37085;SDS011;23001;45.952;12.676;2024-02-23T18:34:15;18.75;;;16.77;;
37085;SDS011;23001;45.952;12.676;2024-02-23T18:36:41;18.25;;;16.40;;
37085;SDS011;23001;45.952;12.676;2024-02-23T18:39:08;16.25;;;13.95;;
37085;SDS011;23001;45.952;12.676;2024-02-23T18:41:36;15.52;;;13.93;;
37085;SDS011;23001;45.952;12.676;2024-02-23T18:44:02;14.77;;;13.27;;
37085;SDS011;23001;45.952;12.676;2024-02-23T18:46:29;14.27;;;12.88;;